createdAt,value
2019-02-28T00:01:07.551Z,14.30
2019-02-28T00:03:13.828Z,13.23
2019-02-28T00:05:20.007Z,14.60
2019-02-28T00:07:26.160Z,13.10
2019-02-28T00:09:32.410Z,13.90
2019-02-28T00:11:39.550Z,13.87
2019-02-28T00:13:46.357Z,15.10
2019-02-28T00:15:52.443Z,13.10
2019-02-28T00:17:58.789Z,13.03
2019-02-28T00:20:07.182Z,14.23
2019-02-28T00:22:14.648Z,14.60
2019-02-28T00:24:21.151Z,13.90
2019-02-28T00:26:27.311Z,14.60
2019-02-28T00:28:33.478Z,13.87
2019-02-28T00:30:40.826Z,14.20
2019-02-28T00:32:47.939Z,14.80
2019-02-28T00:34:53.968Z,15.03
2019-02-28T00:37:00.053Z,15.10
2019-02-28T00:39:07.449Z,15.07
2019-02-28T00:41:13.815Z,15.13
2019-02-28T00:43:22.279Z,15.10
2019-02-28T00:45:27.656Z,14.40
2019-02-28T00:47:33.899Z,14.60
2019-02-28T00:49:39.960Z,13.83
2019-02-28T00:51:46.110Z,15.13
2019-02-28T00:53:52.287Z,13.67
2019-02-28T00:55:58.538Z,14.77
2019-02-28T00:58:04.597Z,12.07
2019-02-28T01:00:20.017Z,15.17
2019-02-28T01:02:26.220Z,15.43
2019-02-28T01:04:32.281Z,14.37
2019-02-28T01:06:38.349Z,13.47
2019-02-28T01:08:46.161Z,13.57
2019-02-28T01:10:52.387Z,15.63
2019-02-28T01:12:58.548Z,13.87
2019-02-28T01:15:07.159Z,14.80
2019-02-28T01:17:14.237Z,14.23
2019-02-28T01:19:20.298Z,15.07
2019-02-28T01:21:26.460Z,15.40
2019-02-28T01:23:32.519Z,15.20
2019-02-28T01:25:40.139Z,14.70
2019-02-28T01:27:46.560Z,14.00
2019-02-28T01:29:52.619Z,14.50
2019-02-28T01:31:58.746Z,13.57
2019-02-28T01:34:04.847Z,14.73
2019-02-28T01:36:12.295Z,14.77
2019-02-28T01:38:18.888Z,14.10
2019-02-28T01:40:25.249Z,15.43
2019-02-28T01:42:31.407Z,14.03
2019-02-28T01:44:37.799Z,13.37
2019-02-28T01:46:43.828Z,14.57
2019-02-28T01:48:49.992Z,14.30
2019-02-28T01:50:56.140Z,14.93
2019-02-28T01:53:02.306Z,15.33
2019-02-28T01:55:11.120Z,14.20
2019-02-28T01:57:17.291Z,14.27
2019-02-28T01:59:23.538Z,15.03
2019-02-28T02:01:31.011Z,13.87
2019-02-28T02:03:40.712Z,14.47
2019-02-28T02:05:48.267Z,14.73
2019-02-28T02:07:53.279Z,15.33
2019-02-28T02:09:59.448Z,15.10
2019-02-28T02:12:05.602Z,14.70
2019-02-28T02:14:11.903Z,14.47
2019-02-28T02:16:18.229Z,14.27
2019-02-28T02:18:24.280Z,14.70
2019-02-28T02:20:30.439Z,15.07
2019-02-28T02:22:36.498Z,14.40
2019-02-28T02:24:42.659Z,15.27
2019-02-28T02:26:48.799Z,16.13
2019-02-28T02:28:54.989Z,15.63
2019-02-28T02:31:01.129Z,14.47
2019-02-28T02:33:13.851Z,13.00
2019-02-28T02:35:15.895Z,15.23
2019-02-28T02:37:22.055Z,14.67
2019-02-28T02:39:28.319Z,15.77
2019-02-28T02:41:34.673Z,14.20
2019-02-28T02:43:41.042Z,13.00
2019-02-28T02:45:47.308Z,15.43
2019-02-28T02:47:54.249Z,14.17
2019-02-28T02:50:00.667Z,14.10
2019-02-28T02:52:06.899Z,14.63
2019-02-28T02:54:17.940Z,14.07
2019-02-28T02:56:20.960Z,13.03
2019-02-28T02:58:28.087Z,14.07
2019-02-28T03:00:34.398Z,13.97
2019-02-28T03:02:40.583Z,15.23
2019-02-28T03:04:46.721Z,13.83
2019-02-28T03:06:52.790Z,13.83
2019-02-28T03:08:59.037Z,15.77
2019-02-28T03:11:05.310Z,13.77
2019-02-28T03:13:11.549Z,14.03
2019-02-28T03:15:24.813Z,14.33
2019-02-28T03:17:26.959Z,14.77
2019-02-28T03:19:34.588Z,14.03
2019-02-28T03:21:40.903Z,14.27
2019-02-28T03:23:47.052Z,15.17
2019-02-28T03:25:53.214Z,12.87
2019-02-28T03:27:59.486Z,14.13
2019-02-28T03:30:27.737Z,13.60
2019-02-28T03:32:39.641Z,15.00
2019-02-28T03:34:36.070Z,15.40
2019-02-28T03:36:42.219Z,15.20
2019-02-28T03:38:49.829Z,15.73
2019-02-28T03:40:56.488Z,14.83
2019-02-28T03:43:06.756Z,16.17
2019-02-28T03:45:15.834Z,14.43
2019-02-28T03:47:23.948Z,16.03
2019-02-28T03:49:29.927Z,14.60
2019-02-28T03:51:36.191Z,17.23
2019-02-28T03:53:42.789Z,16.03
2019-02-28T03:55:49.094Z,16.70
2019-02-28T03:57:55.743Z,17.37
2019-02-28T04:00:02.223Z,17.00
2019-02-28T04:02:09.731Z,16.67
2019-02-28T04:04:15.884Z,14.37
2019-02-28T04:06:22.062Z,16.97
2019-02-28T04:08:30.368Z,15.23
2019-02-28T04:10:35.902Z,13.60
2019-02-28T04:12:45.628Z,15.87
2019-02-28T04:14:51.294Z,17.43
2019-02-28T04:16:57.560Z,14.27
2019-02-28T04:19:03.839Z,18.43
2019-02-28T04:21:11.888Z,14.27
2019-02-28T04:23:17.876Z,15.00
2019-02-28T04:25:24.532Z,15.47
2019-02-28T04:27:30.909Z,15.10
2019-02-28T04:29:37.168Z,13.27
2019-02-28T04:31:43.321Z,14.80
2019-02-28T04:33:49.461Z,14.87
2019-02-28T04:35:56.871Z,14.60
2019-02-28T04:38:03.437Z,12.50
2019-02-28T04:40:14.481Z,13.87
2019-02-28T04:42:20.663Z,13.83
2019-02-28T04:44:26.700Z,14.20
2019-02-28T04:46:32.782Z,15.30
2019-02-28T04:48:38.810Z,13.13
2019-02-28T04:50:45.097Z,13.67
2019-02-28T04:52:51.665Z,12.87
2019-02-28T04:54:59.399Z,14.33
2019-02-28T04:57:06.818Z,11.77
2019-02-28T04:59:12.899Z,12.40
2019-02-28T05:01:19.040Z,14.23
2019-02-28T05:03:27.938Z,13.87
2019-02-28T05:05:33.002Z,10.60
2019-02-28T05:07:39.169Z,13.50
2019-02-28T05:09:48.096Z,14.20
2019-02-28T05:11:53.333Z,13.53
2019-02-28T05:13:59.488Z,14.33
2019-02-28T05:16:05.655Z,13.57
2019-02-28T05:18:11.924Z,13.70
2019-02-28T05:20:18.171Z,12.83
2019-02-28T05:22:24.461Z,14.17
2019-02-28T05:24:32.310Z,14.30
2019-02-28T05:26:38.475Z,12.03
2019-02-28T05:28:44.725Z,12.50
2019-02-28T05:30:53.746Z,13.47
2019-02-28T05:32:58.779Z,12.00
2019-02-28T05:35:05.453Z,11.00
2019-02-28T05:37:12.526Z,12.10
2019-02-28T05:39:19.315Z,11.87
2019-02-28T05:41:25.476Z,12.03
2019-02-28T05:43:32.111Z,10.77
2019-02-28T05:45:39.009Z,11.23
2019-02-28T05:47:47.236Z,12.53
2019-02-28T05:49:53.867Z,10.60
2019-02-28T05:51:59.935Z,12.27
2019-02-28T05:54:06.087Z,12.23
2019-02-28T05:56:12.166Z,11.70
2019-02-28T05:58:18.864Z,11.10
2019-02-28T06:00:26.315Z,13.43
2019-02-28T06:02:32.496Z,12.37
2019-02-28T06:04:38.629Z,12.43
2019-02-28T06:06:44.796Z,14.17
2019-02-28T06:08:51.046Z,12.53
2019-02-28T06:11:00.616Z,12.00
2019-02-28T06:13:05.105Z,14.20
2019-02-28T06:15:14.454Z,12.00
2019-02-28T06:17:21.703Z,12.87
2019-02-28T06:19:28.288Z,12.00
2019-02-28T06:21:34.447Z,13.33
2019-02-28T06:23:41.005Z,14.87
2019-02-28T06:25:47.808Z,11.83
2019-02-28T06:27:53.935Z,12.50
2019-02-28T06:30:00.111Z,11.43
2019-02-28T06:32:06.566Z,13.20
2019-02-28T06:34:12.624Z,14.63
2019-02-28T06:36:18.877Z,13.63
2019-02-28T06:38:25.054Z,13.37
2019-02-28T06:40:33.163Z,15.07
2019-02-28T06:42:39.210Z,14.50
2019-02-28T06:44:45.360Z,13.20
2019-02-28T06:46:51.407Z,13.50
2019-02-28T06:49:06.121Z,12.07
2019-02-28T06:51:05.466Z,15.37
2019-02-28T06:53:11.734Z,13.97
2019-02-28T06:55:19.529Z,14.17
2019-02-28T06:57:26.887Z,15.37
2019-02-28T06:59:36.264Z,14.60
2019-02-28T07:01:41.494Z,15.90
2019-02-28T07:03:53.461Z,15.30
2019-02-28T07:05:57.526Z,13.80
2019-02-28T07:08:03.564Z,16.20
2019-02-28T07:10:18.923Z,13.23
2019-02-28T07:12:29.535Z,14.80
2019-02-28T07:14:32.993Z,14.47
2019-02-28T07:16:39.126Z,15.90
2019-02-28T07:18:45.286Z,14.40
2019-02-28T07:20:51.617Z,15.17
2019-02-28T07:22:57.707Z,13.57
2019-02-28T07:25:03.853Z,15.43
2019-02-28T07:27:10.017Z,16.93
2019-02-28T07:29:16.180Z,15.07
2019-02-28T07:31:24.665Z,16.27
2019-02-28T07:33:30.437Z,17.20
2019-02-28T07:35:36.958Z,14.83
2019-02-28T07:37:43.270Z,12.00
2019-02-28T07:39:49.422Z,15.97
2019-02-28T07:41:58.799Z,18.83
2019-02-28T07:44:03.487Z,13.77
2019-02-28T07:46:09.746Z,16.73
2019-02-28T07:48:16.106Z,14.40
2019-02-28T07:50:22.365Z,18.20
2019-02-28T07:52:32.379Z,17.80
2019-02-28T07:54:36.417Z,15.80
2019-02-28T07:56:43.173Z,16.63
2019-02-28T07:58:50.272Z,19.37
2019-02-28T08:00:56.521Z,16.83
2019-02-28T08:03:02.681Z,19.47
2019-02-28T08:05:13.041Z,20.20
2019-02-28T08:07:19.197Z,20.17
2019-02-28T08:09:28.718Z,21.33
2019-02-28T08:11:34.894Z,20.80
2019-02-28T08:13:41.167Z,20.77
2019-02-28T08:15:47.427Z,17.10
2019-02-28T08:17:53.686Z,21.23
2019-02-28T08:19:59.844Z,19.67
2019-02-28T08:22:05.977Z,23.13
2019-02-28T08:24:12.463Z,21.07
2019-02-28T08:26:18.931Z,21.37
2019-02-28T08:28:26.657Z,20.53
2019-02-28T08:30:35.438Z,20.57
2019-02-28T08:32:44.118Z,19.63
2019-02-28T08:34:50.741Z,20.00
2019-02-28T08:36:57.301Z,20.40
2019-02-28T08:39:06.045Z,24.33
2019-02-28T08:41:13.624Z,20.20
2019-02-28T08:43:27.174Z,25.97
2019-02-28T08:45:32.709Z,22.70
2019-02-28T08:47:36.477Z,25.60
2019-02-28T08:49:45.391Z,20.83
2019-02-28T08:51:50.646Z,21.77
2019-02-28T08:53:56.902Z,24.07
2019-02-28T08:56:03.159Z,21.70
2019-02-28T08:58:09.417Z,22.03
2019-02-28T09:00:21.228Z,17.63
2019-02-28T09:02:27.477Z,20.33
2019-02-28T09:04:41.034Z,25.10
2019-02-28T09:06:41.736Z,22.50
2019-02-28T09:08:48.009Z,22.90
2019-02-28T09:10:54.258Z,28.00
2019-02-28T09:13:00.517Z,23.30
2019-02-28T09:15:10.857Z,24.03
2019-02-28T09:17:18.655Z,24.77
2019-02-28T09:19:25.252Z,22.43
2019-02-28T09:21:35.339Z,25.17
2019-02-28T09:23:41.834Z,24.47
2019-02-28T09:25:48.002Z,22.53
2019-02-28T09:27:54.163Z,26.03
2019-02-28T09:30:00.414Z,25.77
2019-02-28T09:32:10.231Z,25.37
2019-02-28T09:34:16.823Z,29.80
2019-02-28T09:36:22.982Z,26.80
2019-02-28T09:38:29.143Z,26.17
2019-02-28T09:40:35.304Z,23.43
2019-02-28T09:42:41.571Z,46.53
2019-02-28T09:44:47.823Z,47.77
2019-02-28T09:46:54.086Z,20.40
2019-02-28T09:49:00.350Z,19.57
2019-02-28T09:51:06.505Z,27.47
2019-02-28T09:53:15.554Z,24.80
2019-02-28T09:55:21.097Z,26.27
2019-02-28T09:57:27.341Z,27.30
2019-02-28T09:59:37.336Z,23.83
2019-02-28T10:01:42.545Z,25.40
2019-02-28T10:03:48.883Z,26.63
2019-02-28T10:05:55.143Z,28.57
2019-02-28T10:08:02.855Z,27.40
2019-02-28T10:10:20.871Z,27.30
2019-02-28T10:12:27.150Z,28.47
2019-02-28T10:14:34.645Z,25.33
2019-02-28T10:16:40.862Z,21.43
2019-02-28T10:18:47.055Z,24.93
2019-02-28T10:20:53.391Z,24.13
2019-02-28T10:22:59.590Z,32.57
2019-02-28T10:25:08.184Z,25.93
2019-02-28T10:27:14.645Z,24.07
2019-02-28T10:29:21.093Z,32.43
2019-02-28T10:31:36.160Z,26.50
2019-02-28T10:33:35.057Z,30.17
2019-02-28T10:35:41.310Z,25.70
2019-02-28T10:37:48.190Z,33.83
2019-02-28T10:39:54.238Z,29.83
2019-02-28T10:42:01.473Z,33.30
2019-02-28T10:44:09.331Z,29.60
2019-02-28T10:46:16.950Z,29.67
2019-02-28T10:48:23.386Z,32.20
2019-02-28T10:50:38.310Z,30.20
2019-02-28T10:52:44.825Z,33.03
2019-02-28T10:54:51.071Z,26.00
2019-02-28T10:56:57.218Z,27.70
2019-02-28T10:59:03.681Z,39.37
2019-02-28T11:01:11.705Z,36.60
2019-02-28T11:03:19.399Z,23.73
2019-02-28T11:05:34.761Z,40.40
2019-02-28T11:07:41.015Z,31.67
2019-02-28T11:09:47.262Z,35.83
2019-02-28T11:11:54.541Z,55.47
2019-02-28T11:14:03.925Z,33.63
2019-02-28T11:16:10.454Z,27.13
2019-02-28T11:18:17.133Z,27.83
2019-02-28T11:20:26.171Z,25.93
2019-02-28T11:22:32.623Z,23.27
2019-02-28T11:24:38.886Z,23.20
2019-02-28T11:26:45.646Z,27.73
2019-02-28T11:28:51.946Z,28.17
2019-02-28T11:30:58.377Z,26.53
2019-02-28T11:33:05.793Z,27.10
2019-02-28T11:35:12.635Z,29.23
2019-02-28T11:37:18.915Z,25.67
2019-02-28T11:39:27.597Z,29.07
2019-02-28T11:41:33.074Z,22.20
2019-02-28T11:43:39.313Z,25.07
2019-02-28T11:45:48.154Z,26.70
2019-02-28T11:47:56.965Z,28.60
2019-02-28T11:50:04.640Z,28.40
2019-02-28T11:52:11.124Z,29.37
2019-02-28T11:54:17.794Z,25.70
2019-02-28T11:56:25.589Z,30.47
2019-02-28T11:58:31.934Z,31.00
2019-02-28T12:00:40.483Z,30.53
2019-02-28T12:02:53.379Z,23.33
2019-02-28T12:04:55.131Z,26.43
2019-02-28T12:07:01.785Z,30.27
2019-02-28T12:09:09.386Z,26.60
2019-02-28T12:11:15.660Z,29.97
2019-02-28T12:13:21.925Z,27.13
2019-02-28T12:15:38.227Z,28.20
2019-02-28T12:17:43.141Z,28.07
2019-02-28T12:19:50.644Z,22.40
2019-02-28T12:21:57.193Z,29.50
2019-02-28T12:24:03.370Z,26.53
2019-02-28T12:26:09.612Z,22.20
2019-02-28T12:28:15.766Z,25.20
2019-02-28T12:30:28.401Z,25.50
2019-02-28T12:32:34.641Z,23.40
2019-02-28T12:34:40.893Z,26.67
2019-02-28T12:36:49.418Z,18.97
2019-02-28T12:38:55.098Z,20.33
2019-02-28T12:41:01.323Z,20.83
2019-02-28T12:43:10.954Z,24.90
2019-02-28T12:45:25.118Z,17.40
2019-02-28T12:47:33.114Z,25.80
2019-02-28T12:49:40.748Z,25.93
2019-02-28T12:51:46.958Z,25.70
2019-02-28T12:53:56.246Z,19.00
2019-02-28T12:56:01.116Z,23.83
2019-02-28T12:58:07.476Z,25.03
2019-02-28T13:00:23.302Z,26.00
2019-02-28T13:02:28.485Z,26.50
2019-02-28T13:04:35.824Z,27.80
2019-02-28T13:06:42.551Z,22.00
2019-02-28T13:08:48.814Z,29.40
2019-02-28T13:10:54.977Z,24.03
2019-02-28T13:13:06.400Z,24.33
2019-02-28T13:15:13.874Z,26.33
2019-02-28T13:17:20.193Z,24.30
2019-02-28T13:19:26.676Z,22.27
2019-02-28T13:21:32.927Z,18.63
2019-02-28T13:23:39.107Z,22.03
2019-02-28T13:25:45.354Z,23.13
2019-02-28T13:27:51.626Z,23.30
2019-02-28T13:29:57.882Z,24.87
2019-02-28T13:32:04.261Z,23.43
2019-02-28T13:34:11.093Z,15.77
2019-02-28T13:36:18.502Z,22.33
2019-02-28T13:38:25.368Z,24.47
2019-02-28T13:40:31.625Z,24.77
2019-02-28T13:42:40.914Z,21.77
2019-02-28T13:44:45.686Z,22.40
2019-02-28T13:46:51.853Z,21.80
2019-02-28T13:48:58.121Z,21.10
2019-02-28T13:51:08.416Z,22.13
2019-02-28T13:53:18.276Z,21.50
2019-02-28T13:55:22.119Z,21.70
2019-02-28T13:57:28.360Z,21.03
2019-02-28T13:59:34.617Z,19.83
2019-02-28T14:01:40.808Z,22.23
2019-02-28T14:03:47.246Z,19.77
2019-02-28T14:05:53.613Z,20.57
2019-02-28T14:07:59.956Z,15.40
2019-02-28T14:10:11.505Z,21.10
2019-02-28T14:12:20.788Z,17.57
2019-02-28T14:14:25.804Z,19.97
2019-02-28T14:16:33.240Z,22.00
2019-02-28T14:18:39.365Z,18.53
2019-02-28T14:20:45.931Z,15.73
2019-02-28T14:22:52.598Z,18.37
2019-02-28T14:24:58.871Z,18.57
2019-02-28T14:27:05.222Z,15.47
2019-02-28T14:29:11.733Z,18.10
2019-02-28T14:31:18.267Z,18.67
2019-02-28T14:33:26.050Z,18.07
2019-02-28T14:35:35.542Z,18.43
2019-02-28T14:37:40.441Z,15.27
2019-02-28T14:39:47.820Z,13.17
2019-02-28T14:41:54.071Z,17.40
2019-02-28T14:44:00.324Z,14.50
2019-02-28T14:46:06.891Z,14.30
2019-02-28T14:48:13.253Z,14.57
2019-02-28T14:50:19.992Z,19.17
2019-02-28T14:52:26.389Z,19.67
2019-02-28T14:54:32.698Z,17.07
2019-02-28T14:56:39.579Z,18.00
2019-02-28T14:58:46.815Z,17.57
2019-02-28T15:00:53.082Z,19.33
2019-02-28T15:03:04.041Z,16.50
2019-02-28T15:05:16.625Z,18.73
2019-02-28T15:07:21.684Z,18.57
2019-02-28T15:09:28.134Z,17.73
2019-02-28T15:11:34.719Z,16.43
2019-02-28T15:13:40.969Z,17.53
2019-02-28T15:15:49.444Z,17.80
2019-02-28T15:17:55.468Z,13.90
2019-02-28T15:20:01.602Z,16.17
2019-02-28T15:22:09.812Z,17.20
2019-02-28T15:24:15.953Z,16.67
2019-02-28T15:26:22.322Z,15.80
2019-02-28T15:28:28.580Z,16.87
2019-02-28T15:30:40.282Z,13.73
2019-02-28T15:32:46.630Z,16.10
2019-02-28T15:34:53.607Z,14.10
2019-02-28T15:37:00.287Z,13.07
2019-02-28T15:39:09.680Z,18.30
2019-02-28T15:41:16.175Z,15.23
2019-02-28T15:43:22.757Z,16.10
2019-02-28T15:45:29.012Z,18.00
2019-02-28T15:47:35.261Z,13.53
2019-02-28T15:49:42.588Z,16.33
2019-02-28T15:51:49.101Z,15.53
2019-02-28T15:53:55.372Z,15.53
2019-02-28T15:56:01.855Z,14.67
2019-02-28T15:58:09.630Z,11.87
2019-02-28T16:00:33.921Z,19.60
2019-02-28T16:02:43.315Z,14.53
2019-02-28T16:04:49.640Z,14.87
2019-02-28T16:06:57.939Z,17.37
2019-02-28T16:09:06.122Z,17.27
2019-02-28T16:11:17.279Z,16.13
2019-02-28T16:13:26.596Z,14.23
2019-02-28T16:15:33.299Z,16.43
2019-02-28T16:17:42.351Z,15.50
2019-02-28T16:19:48.694Z,17.60
2019-02-28T16:21:55.267Z,17.30
2019-02-28T16:24:05.069Z,18.23
2019-02-28T16:26:10.362Z,16.13
2019-02-28T16:28:17.210Z,15.90
2019-02-28T16:30:23.691Z,14.90
2019-02-28T16:32:30.080Z,15.67
2019-02-28T16:34:38.796Z,14.73
2019-02-28T16:36:45.201Z,16.17
2019-02-28T16:38:51.692Z,15.27
2019-02-28T16:41:00.800Z,16.07
2019-02-28T16:43:06.271Z,14.57
2019-02-28T16:45:19.691Z,16.17
2019-02-28T16:47:27.312Z,12.27
2019-02-28T16:49:34.039Z,17.20
2019-02-28T16:51:40.748Z,14.70
2019-02-28T16:53:48.008Z,16.47
2019-02-28T16:55:55.307Z,17.90
2019-02-28T16:58:06.249Z,19.03
2019-02-28T17:00:16.144Z,16.63
2019-02-28T17:02:26.425Z,17.30
2019-02-28T17:04:33.862Z,16.00
2019-02-28T17:06:40.431Z,19.40
2019-02-28T17:08:48.437Z,17.57
2019-02-28T17:10:54.891Z,18.10
2019-02-28T17:13:04.204Z,18.40
2019-02-28T17:15:14.789Z,15.13
2019-02-28T17:17:23.023Z,16.37
2019-02-28T17:19:31.679Z,18.63
2019-02-28T17:21:37.683Z,19.13
2019-02-28T17:23:45.244Z,16.87
2019-02-28T17:25:56.525Z,17.93
2019-02-28T17:28:20.919Z,16.80
2019-02-28T17:30:32.959Z,17.67
2019-02-28T17:32:41.841Z,15.77
2019-02-28T17:34:48.531Z,17.60
2019-02-28T17:36:56.438Z,17.43
2019-02-28T17:39:05.460Z,18.03
2019-02-28T17:41:13.442Z,17.23
2019-02-28T17:43:24.123Z,16.90
2019-02-28T17:45:29.444Z,17.17
2019-02-28T17:47:46.802Z,19.83
2019-02-28T17:50:27.585Z,22.07
2019-02-28T17:53:10.219Z,19.17
2019-02-28T17:55:35.974Z,19.53
2019-02-28T17:57:55.930Z,18.83
2019-02-28T18:00:21.964Z,15.17
2019-02-28T18:02:55.403Z,15.93
2019-02-28T18:05:36.497Z,17.47
2019-02-28T18:08:07.494Z,19.43
2019-02-28T18:10:38.833Z,18.73
2019-02-28T18:13:20.078Z,20.47
2019-02-28T18:15:33.037Z,18.40
2019-02-28T18:18:24.793Z,18.47
2019-02-28T18:21:04.691Z,19.40
2019-02-28T18:23:47.002Z,19.47
2019-02-28T18:26:19.065Z,17.77
2019-02-28T18:28:35.976Z,18.47
2019-02-28T18:31:12.134Z,18.00
2019-02-28T18:33:19.511Z,17.50
2019-02-28T18:35:29.169Z,20.20
2019-02-28T18:37:35.326Z,19.67
2019-02-28T18:39:44.608Z,16.47
2019-02-28T18:41:52.885Z,19.30
2019-02-28T18:44:00.087Z,19.77
2019-02-28T18:46:08.207Z,19.60
2019-02-28T18:48:17.851Z,20.80
2019-02-28T18:50:24.299Z,16.30
2019-02-28T18:52:31.065Z,19.97
2019-02-28T18:54:39.364Z,23.00
2019-02-28T18:56:45.920Z,18.33
2019-02-28T18:58:53.765Z,19.87
2019-02-28T19:01:00.785Z,23.40
2019-02-28T19:03:08.045Z,20.63
2019-02-28T19:05:14.772Z,18.90
2019-02-28T19:07:21.625Z,21.27
2019-02-28T19:09:28.245Z,19.33
2019-02-28T19:11:35.086Z,20.67
2019-02-28T19:13:42.385Z,19.37
2019-02-28T19:15:49.005Z,19.77
2019-02-28T19:17:55.985Z,17.50
2019-02-28T19:20:02.591Z,21.07
2019-02-28T19:22:10.810Z,20.27
2019-02-28T19:24:17.356Z,22.77
2019-02-28T19:26:24.110Z,22.37
2019-02-28T19:28:30.707Z,20.30
2019-02-28T19:30:39.077Z,19.10
2019-02-28T19:32:45.660Z,18.90
2019-02-28T19:34:53.771Z,23.10
2019-02-28T19:37:02.777Z,20.70
2019-02-28T19:39:10.551Z,23.80
2019-02-28T19:41:17.340Z,21.57
2019-02-28T19:43:25.554Z,21.77
2019-02-28T19:45:36.510Z,19.87
2019-02-28T19:47:47.598Z,25.10
2019-02-28T19:49:54.353Z,24.83
2019-02-28T19:52:02.263Z,24.00
2019-02-28T19:54:09.020Z,21.57
2019-02-28T19:56:16.390Z,22.80
2019-02-28T19:58:22.855Z,26.40
2019-02-28T20:00:29.372Z,25.70
2019-02-28T20:02:36.503Z,24.17
2019-02-28T20:04:44.190Z,27.33
2019-02-28T20:06:50.622Z,24.43
2019-02-28T20:08:57.400Z,26.53
2019-02-28T20:11:04.118Z,25.70
2019-02-28T20:13:10.691Z,21.23
2019-02-28T20:15:20.773Z,25.67
2019-02-28T20:17:28.253Z,24.40
2019-02-28T20:19:34.881Z,19.97
2019-02-28T20:21:41.705Z,24.47
2019-02-28T20:23:49.632Z,24.07
2019-02-28T20:25:56.287Z,20.43
2019-02-28T20:28:02.811Z,21.00
2019-02-28T20:30:14.340Z,24.60
2019-02-28T20:32:21.325Z,22.93
2019-02-28T20:34:29.200Z,26.17
2019-02-28T20:36:35.737Z,26.10
2019-02-28T20:38:45.059Z,26.33
2019-02-28T20:40:53.063Z,25.57
2019-02-28T20:42:59.534Z,22.73
2019-02-28T20:45:11.193Z,22.77
2019-02-28T20:47:19.355Z,25.97
2019-02-28T20:49:26.103Z,27.57
2019-02-28T20:51:32.871Z,24.03
2019-02-28T20:53:39.651Z,24.87
2019-02-28T20:55:48.859Z,23.90
2019-02-28T20:57:57.468Z,25.43
2019-02-28T21:00:07.965Z,22.90
2019-02-28T21:02:14.598Z,20.90
2019-02-28T21:04:21.378Z,22.37
2019-02-28T21:06:28.213Z,23.37
2019-02-28T21:08:34.603Z,22.13
2019-02-28T21:10:41.397Z,24.33
2019-02-28T21:12:49.403Z,24.37
2019-02-28T21:14:55.941Z,23.10
2019-02-28T21:17:02.239Z,23.00
2019-02-28T21:19:09.079Z,23.97
2019-02-28T21:21:16.982Z,21.97
2019-02-28T21:23:24.069Z,24.73
2019-02-28T21:25:32.910Z,21.93
2019-02-28T21:27:39.470Z,20.70
2019-02-28T21:29:47.363Z,25.03
2019-02-28T21:31:53.825Z,22.47
2019-02-28T21:34:00.386Z,25.67
2019-02-28T21:36:07.127Z,23.73
2019-02-28T21:38:14.074Z,24.33
2019-02-28T21:40:22.541Z,22.90
2019-02-28T21:42:28.934Z,22.87
2019-02-28T21:44:35.889Z,25.40
2019-02-28T21:46:42.243Z,22.37
2019-02-28T21:48:48.706Z,23.93
2019-02-28T21:50:54.969Z,23.87
2019-02-28T21:53:01.639Z,21.60
2019-02-28T21:55:12.056Z,23.50
2019-02-28T21:57:18.348Z,22.70
2019-02-28T21:59:24.505Z,21.17
2019-02-28T22:01:30.659Z,22.33
2019-02-28T22:03:36.923Z,22.17
2019-02-28T22:05:43.393Z,22.00
2019-02-28T22:07:49.556Z,20.83
2019-02-28T22:09:55.933Z,21.00
2019-02-28T22:12:02.188Z,23.47
2019-02-28T22:14:08.445Z,23.33
2019-02-28T22:16:14.996Z,22.37
2019-02-28T22:18:21.165Z,22.07
2019-02-28T22:20:27.417Z,23.87
2019-02-28T22:22:33.689Z,21.97
2019-02-28T22:24:39.929Z,22.40
2019-02-28T22:26:46.099Z,21.13
2019-02-28T22:28:52.448Z,23.87
2019-02-28T22:31:00.268Z,20.97
2019-02-28T22:33:24.374Z,19.87
2019-02-28T22:35:32.129Z,19.80
2019-02-28T22:37:40.434Z,23.33
2019-02-28T22:39:46.588Z,18.53
2019-02-28T22:41:52.746Z,17.50
2019-02-28T22:43:58.918Z,20.97
2019-02-28T22:46:05.071Z,21.20
2019-02-28T22:48:11.121Z,23.07
2019-02-28T22:50:17.283Z,22.30
2019-02-28T22:52:24.818Z,20.03
2019-02-28T22:54:31.133Z,20.57
2019-02-28T22:56:37.298Z,21.63
2019-02-28T22:58:43.552Z,22.63
2019-02-28T23:01:08.137Z,18.63
2019-02-28T23:03:15.828Z,21.57
2019-02-28T23:05:21.989Z,20.73
2019-02-28T23:07:28.157Z,23.77
2019-02-28T23:09:34.305Z,17.80
2019-02-28T23:11:40.565Z,20.43
2019-02-28T23:13:46.707Z,23.00
2019-02-28T23:15:52.981Z,19.90
2019-02-28T23:17:59.142Z,18.20
2019-02-28T23:20:08.174Z,20.07
2019-02-28T23:22:14.551Z,24.00
2019-02-28T23:24:20.992Z,18.23
2019-02-28T23:26:27.695Z,22.80
2019-02-28T23:28:38.220Z,22.57
2019-02-28T23:31:17.050Z,20.63
2019-02-28T23:33:23.715Z,20.30
2019-02-28T23:35:34.006Z,21.10
2019-02-28T23:37:40.364Z,17.87
2019-02-28T23:39:46.592Z,20.23
2019-02-28T23:41:52.855Z,20.60
2019-02-28T23:43:59.113Z,24.23
2019-02-28T23:46:05.584Z,22.30
2019-02-28T23:48:11.938Z,23.87
2019-02-28T23:50:18.116Z,20.40
2019-02-28T23:52:24.344Z,20.50
2019-02-28T23:54:30.514Z,21.33
2019-02-28T23:56:36.687Z,20.03
2019-02-28T23:58:42.761Z,21.67
